createdAt,value
2022-10-23T00:00:21.808Z,30.80
2022-10-23T00:03:23.272Z,25.45
2022-10-23T00:06:25.397Z,24.17
2022-10-23T00:09:26.730Z,22.00
2022-10-23T00:12:28.088Z,28.40
2022-10-23T00:15:29.434Z,26.13
2022-10-23T00:18:31.065Z,29.42
2022-10-23T00:21:32.466Z,32.20
2022-10-23T00:24:34.166Z,24.00
2022-10-23T00:27:35.717Z,30.95
2022-10-23T00:30:37.148Z,28.48
2022-10-23T00:33:38.633Z,29.52
2022-10-23T00:36:41.188Z,29.95
2022-10-23T00:39:43.024Z,29.20
2022-10-23T00:42:44.466Z,28.63
2022-10-23T00:45:46.026Z,29.65
2022-10-23T00:48:47.357Z,28.13
2022-10-23T00:52:04.950Z,28.75
2022-10-23T00:55:06.614Z,26.27
2022-10-23T00:58:09.036Z,26.77
2022-10-23T01:01:22.057Z,27.57
2022-10-23T01:04:24.594Z,29.40
2022-10-23T01:07:33.667Z,29.13
2022-10-23T01:10:44.081Z,30.77
2022-10-23T01:13:57.762Z,33.28
2022-10-23T01:17:14.107Z,31.40
2022-10-23T01:20:29.652Z,24.83
2022-10-23T01:23:30.923Z,32.75
2022-10-23T01:27:31.528Z,26.98
2022-10-23T01:33:54.856Z,24.40
2022-10-23T01:37:03.811Z,19.87
2022-10-23T01:40:09.726Z,24.95
2022-10-23T01:43:35.893Z,22.55
2022-10-23T01:46:39.485Z,25.80
2022-10-23T01:49:44.468Z,24.75
2022-10-23T01:52:45.985Z,22.83
2022-10-23T01:55:49.303Z,27.67
2022-10-23T01:58:59.869Z,24.55
2022-10-23T02:02:06.765Z,22.73
2022-10-23T02:05:28.774Z,28.60
2022-10-23T02:08:32.238Z,25.98
2022-10-23T02:11:42.361Z,24.95
2022-10-23T02:15:16.179Z,78.45
2022-10-23T02:18:32.167Z,79.25
2022-10-23T02:21:43.154Z,134.20
2022-10-23T02:24:51.155Z,124.50
2022-10-23T02:27:58.042Z,122.00
2022-10-23T02:31:09.935Z,103.97
2022-10-23T02:34:11.524Z,102.95
2022-10-23T02:37:12.975Z,81.85
2022-10-23T02:40:14.448Z,82.78
2022-10-23T02:43:27.583Z,90.10
2022-10-23T02:46:39.023Z,83.00
2022-10-23T02:50:08.458Z,68.57
2022-10-23T02:53:30.569Z,72.78
2022-10-23T02:56:38.568Z,65.65
2022-10-23T03:00:12.883Z,121.03
2022-10-23T03:03:24.605Z,88.25
2022-10-23T03:06:26.027Z,99.22
2022-10-23T03:09:27.422Z,112.70
2022-10-23T03:12:28.812Z,99.20
2022-10-23T03:15:30.712Z,127.85
2022-10-23T03:18:32.196Z,84.75
2022-10-23T03:21:34.884Z,98.70
2022-10-23T03:24:38.129Z,85.82
2022-10-23T03:27:39.649Z,86.40
2022-10-23T03:30:44.536Z,100.30
2022-10-23T03:33:45.874Z,74.70
2022-10-23T03:36:47.302Z,107.82
2022-10-23T03:39:49.649Z,128.75
2022-10-23T03:42:51.050Z,169.20
2022-10-23T03:45:56.754Z,190.98
2022-10-23T03:49:00.401Z,190.32
2022-10-23T03:52:01.804Z,132.10
2022-10-23T03:55:04.118Z,163.75
2022-10-23T03:58:05.490Z,186.05
2022-10-23T04:01:06.954Z,187.07
2022-10-23T04:04:11.958Z,154.68
2022-10-23T04:07:16.075Z,146.73
2022-10-23T04:10:17.806Z,104.30
2022-10-23T04:13:19.123Z,138.38
2022-10-23T04:16:20.482Z,117.82
2022-10-23T04:19:21.851Z,115.57
2022-10-23T04:22:25.937Z,138.05
2022-10-23T04:25:29.235Z,111.88
2022-10-23T04:28:30.579Z,35.60
2022-10-23T04:31:32.009Z,66.68
2022-10-23T04:34:33.447Z,96.93
2022-10-23T04:37:34.889Z,120.97
2022-10-23T04:40:36.347Z,63.25
2022-10-23T04:43:37.946Z,42.03
2022-10-23T04:46:39.420Z,39.28
2022-10-23T04:49:41.156Z,30.67
2022-10-23T04:52:57.576Z,27.92
2022-10-23T04:56:13.605Z,33.10
2022-10-23T04:59:25.059Z,28.08
2022-10-23T05:02:26.694Z,26.02
2022-10-23T05:05:28.929Z,27.40
2022-10-23T05:08:59.303Z,26.98
2022-10-23T05:12:19.394Z,24.77
2022-10-23T05:15:22.443Z,23.88
2022-10-23T05:18:35.536Z,22.73
2022-10-23T05:21:39.177Z,23.23
2022-10-23T05:24:41.432Z,20.23
2022-10-23T05:27:43.112Z,20.08
2022-10-23T05:30:47.392Z,20.20
2022-10-23T05:33:53.980Z,22.13
2022-10-23T05:36:56.688Z,18.30
2022-10-23T05:39:58.834Z,39.00
2022-10-23T05:43:00.884Z,34.58
2022-10-23T05:46:15.297Z,36.95
2022-10-23T05:49:27.641Z,27.90
2022-10-23T05:52:49.176Z,44.70
2022-10-23T05:56:11.309Z,47.85
2022-10-23T05:59:22.135Z,36.67
2022-10-23T06:02:24.732Z,30.17
2022-10-23T06:08:55.842Z,22.80
2022-10-23T06:11:57.607Z,22.98
2022-10-23T06:14:59.079Z,24.58
2022-10-23T06:18:12.389Z,24.80
2022-10-23T06:21:25.046Z,20.27
2022-10-23T06:24:27.446Z,22.83
2022-10-23T06:27:36.307Z,23.55
2022-10-23T06:30:39.454Z,20.40
2022-10-23T06:33:41.731Z,21.33
2022-10-23T06:36:44.271Z,19.23
2022-10-23T06:40:08.846Z,20.85
2022-10-23T06:43:26.603Z,17.52
2022-10-23T06:46:49.269Z,16.95
2022-10-23T06:50:16.385Z,17.40
2022-10-23T06:53:19.411Z,23.05
2022-10-23T06:56:26.631Z,21.33
2022-10-23T06:59:28.239Z,19.90
2022-10-23T07:02:29.680Z,20.42
2022-10-23T07:05:33.371Z,21.17
2022-10-23T07:08:35.374Z,22.70
2022-10-23T07:11:42.228Z,21.55
2022-10-23T07:14:43.636Z,19.63
2022-10-23T07:17:45.065Z,23.00
2022-10-23T07:20:46.909Z,26.58
2022-10-23T07:23:48.260Z,17.08
2022-10-23T07:29:52.660Z,20.17
2022-10-23T07:32:54.109Z,20.45
2022-10-23T07:36:15.744Z,17.50
2022-10-23T07:39:17.156Z,24.98
2022-10-23T07:42:25.300Z,19.50
2022-10-23T07:45:26.765Z,24.45
2022-10-23T07:48:28.697Z,21.05
2022-10-23T07:51:33.217Z,24.35
2022-10-23T07:54:35.397Z,24.20
2022-10-23T07:57:42.392Z,21.98
2022-10-23T08:00:57.287Z,22.50
2022-10-23T08:04:05.261Z,19.08
2022-10-23T08:07:08.449Z,20.45
2022-10-23T08:10:15.890Z,20.60
2022-10-23T08:16:40.754Z,18.73
2022-10-23T08:19:50.789Z,18.40
2022-10-23T08:22:53.631Z,17.75
2022-10-23T08:26:01.121Z,19.63
2022-10-23T08:29:05.225Z,15.23
2022-10-23T08:32:06.574Z,14.20
2022-10-23T08:35:20.370Z,17.40
2022-10-23T08:38:21.963Z,14.00
2022-10-23T08:41:33.764Z,14.88
2022-10-23T08:45:03.726Z,12.70
2022-10-23T08:48:21.039Z,14.15
2022-10-23T08:52:09.188Z,13.40
2022-10-23T08:55:26.623Z,19.23
2022-10-23T08:58:39.185Z,15.35
2022-10-23T09:01:46.368Z,12.73
2022-10-23T09:04:51.639Z,12.00
2022-10-23T09:08:04.738Z,13.05
2022-10-23T09:11:27.343Z,12.88
2022-10-23T09:14:28.700Z,12.27
2022-10-23T09:17:36.827Z,13.95
2022-10-23T09:20:40.281Z,14.98
2022-10-23T09:23:42.058Z,13.50
2022-10-23T09:26:48.944Z,11.50
2022-10-23T09:29:53.213Z,11.82
2022-10-23T09:32:54.581Z,11.50
2022-10-23T09:36:01.921Z,10.98
2022-10-23T09:39:03.328Z,14.30
2022-10-23T09:42:25.747Z,10.00
2022-10-23T09:45:35.856Z,9.52
2022-10-23T09:48:41.525Z,9.20
2022-10-23T09:51:54.189Z,13.25
2022-10-23T09:55:01.688Z,10.50
2022-10-23T09:58:03.065Z,13.07
2022-10-23T10:01:05.169Z,8.45
2022-10-23T10:04:37.401Z,9.77
2022-10-23T10:07:38.806Z,10.80
2022-10-23T10:10:47.590Z,8.85
2022-10-23T10:14:06.022Z,9.85
2022-10-23T10:17:29.138Z,10.73
2022-10-23T10:20:54.119Z,8.32
2022-10-23T10:24:05.710Z,9.30
2022-10-23T10:27:36.834Z,12.07
2022-10-23T10:31:09.183Z,8.95
2022-10-23T10:34:44.934Z,10.90
2022-10-23T10:38:01.483Z,10.13
2022-10-23T10:41:22.502Z,12.40
2022-10-23T10:44:48.271Z,9.98
2022-10-23T10:55:12.729Z,11.32
2022-10-23T11:02:13.749Z,6.22
2022-10-23T11:05:37.966Z,9.80
2022-10-23T11:08:56.083Z,14.85
2022-10-23T11:15:40.632Z,14.02
2022-10-23T11:18:46.472Z,9.05
2022-10-23T11:22:20.776Z,13.80
2022-10-23T11:25:26.405Z,11.13
2022-10-23T11:28:43.002Z,8.57
2022-10-23T11:31:59.896Z,10.50
2022-10-23T11:35:25.673Z,13.38
2022-10-23T11:38:33.310Z,13.60
2022-10-23T11:41:34.692Z,15.73
2022-10-23T11:44:46.478Z,9.57
2022-10-23T11:48:02.681Z,8.52
2022-10-23T11:51:05.235Z,8.57
2022-10-23T11:54:12.506Z,14.55
2022-10-23T11:57:16.693Z,6.03
2022-10-23T12:00:22.392Z,11.48
2022-10-23T12:03:50.910Z,5.47
2022-10-23T12:06:55.951Z,8.32
2022-10-23T12:10:00.127Z,5.25
2022-10-23T12:13:04.478Z,3.72
2022-10-23T12:16:07.122Z,6.65
2022-10-23T12:19:23.358Z,7.65
2022-10-23T12:22:32.570Z,4.80
2022-10-23T12:25:55.768Z,7.82
2022-10-23T12:29:18.963Z,6.18
2022-10-23T12:32:39.129Z,6.15
2022-10-23T12:35:43.228Z,4.63
2022-10-23T12:38:48.358Z,6.90
2022-10-23T12:41:49.815Z,3.83
2022-10-23T12:44:59.619Z,5.85
2022-10-23T12:48:00.991Z,8.95
2022-10-23T12:51:02.359Z,5.25
2022-10-23T12:54:14.440Z,4.65
2022-10-23T12:57:29.351Z,5.65
2022-10-23T13:00:30.717Z,7.13
2022-10-23T13:03:33.741Z,5.82
2022-10-23T13:09:40.797Z,7.40
2022-10-23T13:12:59.405Z,6.93
2022-10-23T13:16:00.784Z,9.20
2022-10-23T13:19:02.175Z,4.25
2022-10-23T13:22:15.773Z,4.20
2022-10-23T13:25:24.641Z,4.85
2022-10-23T13:28:35.043Z,9.05
2022-10-23T13:31:36.892Z,4.30
2022-10-23T13:34:38.506Z,5.93
2022-10-23T13:37:39.909Z,2.50
2022-10-23T13:40:41.298Z,6.15
2022-10-23T13:43:44.397Z,5.53
2022-10-23T13:49:47.197Z,5.25
2022-10-23T13:52:48.550Z,16.00
2022-10-23T13:55:52.541Z,5.45
2022-10-23T13:58:57.423Z,8.73
2022-10-23T14:01:59.020Z,5.03
2022-10-23T14:05:00.470Z,5.25
2022-10-23T14:08:01.829Z,5.75
2022-10-23T14:11:03.202Z,5.32
2022-10-23T14:14:04.579Z,6.32
2022-10-23T14:17:05.900Z,6.90
2022-10-23T14:20:08.074Z,6.53
2022-10-23T14:23:09.482Z,3.67
2022-10-23T14:26:14.044Z,6.25
2022-10-23T14:29:22.850Z,5.35
2022-10-23T14:32:25.532Z,7.50
2022-10-23T14:35:26.923Z,4.73
2022-10-23T14:38:28.464Z,6.22
2022-10-23T14:41:31.232Z,4.65
2022-10-23T14:44:32.614Z,3.28
2022-10-23T14:47:34.056Z,5.70
2022-10-23T14:50:37.760Z,5.20
2022-10-23T14:53:39.093Z,6.45
2022-10-23T14:56:40.425Z,5.55
2022-10-23T14:59:42.461Z,4.60
2022-10-23T15:02:44.006Z,10.15
2022-10-23T15:05:45.463Z,6.20
2022-10-23T15:08:52.911Z,5.57
2022-10-23T15:11:54.238Z,9.00
2022-10-23T15:14:55.707Z,6.40
2022-10-23T15:17:57.637Z,8.00
2022-10-23T15:20:59.360Z,6.95
2022-10-23T15:24:01.433Z,4.82
2022-10-23T15:27:02.878Z,4.97
2022-10-23T15:30:04.701Z,7.18
2022-10-23T15:33:06.023Z,6.28
2022-10-23T15:36:07.500Z,7.35
2022-10-23T15:39:10.732Z,7.72
2022-10-23T15:42:12.085Z,10.32
2022-10-23T15:45:13.436Z,4.78
2022-10-23T15:48:14.780Z,7.55
2022-10-23T15:51:16.480Z,8.65
2022-10-23T15:54:19.916Z,8.50
2022-10-23T15:57:21.304Z,6.07
2022-10-23T16:00:22.742Z,8.48
2022-10-23T16:03:24.175Z,6.88
2022-10-23T16:19:52.925Z,6.43
2022-10-23T16:22:54.370Z,8.02
2022-10-23T16:25:55.739Z,6.60
2022-10-23T16:29:02.477Z,5.80
2022-10-23T16:32:04.006Z,9.25
2022-10-23T16:35:08.705Z,6.85
2022-10-23T16:38:24.283Z,6.97
2022-10-23T16:41:25.666Z,6.43
2022-10-23T16:51:26.343Z,9.93
2022-10-23T16:54:27.701Z,8.18
2022-10-23T17:04:18.964Z,10.60
2022-10-23T17:13:37.287Z,5.55
2022-10-23T17:16:44.764Z,7.00
2022-10-23T17:19:46.786Z,7.10
2022-10-23T17:22:48.349Z,6.43
2022-10-23T17:25:49.722Z,7.90
2022-10-23T17:28:51.086Z,6.95
2022-10-23T17:31:52.453Z,7.60
2022-10-23T17:34:53.809Z,8.68
2022-10-23T17:37:55.168Z,8.70
2022-10-23T17:40:56.670Z,11.35
2022-10-23T17:43:59.244Z,8.82
2022-10-23T17:47:00.601Z,9.32
2022-10-23T17:50:01.975Z,6.05
2022-10-23T17:53:03.412Z,4.93
2022-10-23T17:56:07.532Z,6.93
2022-10-23T17:59:13.508Z,8.95
2022-10-23T18:02:14.996Z,6.55
2022-10-23T18:05:19.281Z,7.68
2022-10-23T18:08:20.616Z,9.63
2022-10-23T18:11:33.533Z,9.95
2022-10-23T18:14:37.463Z,10.25
2022-10-23T18:17:39.161Z,10.82
2022-10-23T18:20:40.948Z,12.55
2022-10-23T18:23:42.358Z,6.63
2022-10-23T18:26:44.229Z,8.32
2022-10-23T18:29:45.537Z,9.82
2022-10-23T18:32:46.885Z,6.90
2022-10-23T18:35:48.669Z,7.45
2022-10-23T18:38:50.763Z,7.07
2022-10-23T18:41:55.847Z,9.82
2022-10-23T18:44:57.206Z,10.55
2022-10-23T18:47:58.886Z,10.80
2022-10-23T18:51:00.271Z,8.95
2022-10-23T18:54:03.707Z,10.60
2022-10-23T18:57:05.106Z,8.85
2022-10-23T19:00:11.571Z,9.40
2022-10-23T19:03:15.169Z,6.80
2022-10-23T19:06:17.355Z,9.98
2022-10-23T19:09:19.482Z,10.77
2022-10-23T19:12:21.724Z,9.95
2022-10-23T19:15:23.130Z,10.52
2022-10-23T19:18:24.747Z,9.52
2022-10-23T19:21:29.379Z,12.05
2022-10-23T19:24:44.804Z,9.60
2022-10-23T19:27:48.043Z,8.98
2022-10-23T19:33:50.707Z,7.95
2022-10-23T19:36:53.349Z,7.93
2022-10-23T19:39:54.704Z,11.57
2022-10-23T19:42:56.104Z,7.68
2022-10-23T19:46:00.777Z,6.60
2022-10-23T19:49:02.188Z,8.50
2022-10-23T19:52:03.660Z,5.05
2022-10-23T19:55:06.724Z,6.88
2022-10-23T19:58:08.115Z,6.78
2022-10-23T20:01:16.143Z,17.02
2022-10-23T20:04:18.459Z,8.10
2022-10-23T20:07:19.811Z,5.47
2022-10-23T20:10:21.295Z,8.05
2022-10-23T20:13:23.078Z,6.00
2022-10-23T20:16:31.282Z,5.10
2022-10-23T20:19:32.637Z,7.22
2022-10-23T20:22:34.061Z,4.43
2022-10-23T20:25:35.387Z,6.15
2022-10-23T20:28:37.702Z,5.93
2022-10-23T20:31:39.122Z,3.60
2022-10-23T20:34:40.470Z,5.68
2022-10-23T20:37:42.155Z,3.38
2022-10-23T20:40:43.698Z,2.63
2022-10-23T20:43:45.040Z,4.57
2022-10-23T20:46:47.180Z,4.47
2022-10-23T20:49:48.531Z,3.15
2022-10-23T20:52:50.559Z,5.07
2022-10-23T20:55:51.886Z,4.57
2022-10-23T20:58:53.211Z,2.10
2022-10-23T21:01:55.596Z,3.58
2022-10-23T21:04:57.031Z,6.97
2022-10-23T21:07:58.404Z,4.57
2022-10-23T21:11:00.073Z,5.47
2022-10-23T21:14:01.768Z,6.95
2022-10-23T21:17:05.025Z,4.68
2022-10-23T21:23:07.970Z,7.05
2022-10-23T21:26:09.368Z,3.53
2022-10-23T21:29:20.166Z,4.15
2022-10-23T21:32:21.948Z,4.50
2022-10-23T21:35:25.321Z,6.60
2022-10-23T21:38:29.708Z,4.13
2022-10-23T21:41:33.898Z,3.72
2022-10-23T21:44:35.339Z,3.72
2022-10-23T21:47:37.934Z,4.63
2022-10-23T21:50:39.366Z,3.63
2022-10-23T21:53:40.741Z,4.22
2022-10-23T21:56:47.823Z,7.43
2022-10-23T21:59:49.286Z,3.90
2022-10-23T22:02:51.129Z,4.03
2022-10-23T22:05:52.526Z,4.18
2022-10-23T22:08:55.615Z,4.20
2022-10-23T22:11:57.486Z,4.05
2022-10-23T22:14:58.815Z,4.68
2022-10-23T22:18:00.199Z,1.45
2022-10-23T22:21:04.231Z,2.17
2022-10-23T22:24:06.011Z,4.50
2022-10-23T22:27:07.402Z,2.72
2022-10-23T22:30:09.112Z,1.42
2022-10-23T22:33:10.459Z,2.50
2022-10-23T22:36:12.123Z,1.75
2022-10-23T22:39:16.331Z,2.45
2022-10-23T22:42:17.871Z,2.78
2022-10-23T22:45:19.312Z,1.63
2022-10-23T22:48:20.655Z,3.88
2022-10-23T22:51:25.319Z,1.20
2022-10-23T22:54:26.831Z,1.70
2022-10-23T22:57:28.182Z,3.38
2022-10-23T23:00:29.532Z,5.40
2022-10-23T23:03:30.999Z,1.83
2022-10-23T23:06:34.564Z,2.67
2022-10-23T23:09:40.656Z,2.92
2022-10-23T23:12:42.042Z,2.78
2022-10-23T23:15:43.396Z,3.75
2022-10-23T23:18:44.880Z,2.92
2022-10-23T23:21:46.375Z,3.67
2022-10-23T23:24:47.753Z,6.15
2022-10-23T23:27:49.112Z,3.40
2022-10-23T23:30:50.495Z,2.92
2022-10-23T23:33:53.653Z,3.92
2022-10-23T23:39:56.379Z,6.72
2022-10-23T23:42:57.826Z,7.28
2022-10-23T23:45:59.237Z,3.83
2022-10-23T23:49:00.593Z,3.42
2022-10-23T23:52:02.025Z,4.60
2022-10-23T23:55:04.575Z,6.22
2022-10-23T23:58:05.934Z,3.77
